Glendale, Rhode Island
Current Conditions -  °F | °C
As of 5:15 PM on Monday 20 Oct 2014 (Local Time) from KSFZ Reporting Station
Overcast Overcast  
Wind Chill: 52°   Ceiling: 12000
Heat Index: 52°   Visibility: 10mi
Dew Point: 30°   Wind: 3mph
Humidity: 44%   Direction: 210°SSW
Pressure: 29.98"   Gusts: NA
Location:  41.98°N, 71.63°W
Report Text: KSFZ 202115Z 21003KT 10SM OVC120 11/M01 A2998 RMK AO1
Loading
Personal Weather Stations






























Interactive Weather Map
Tropical Storm Tracking
New forecast layout! Learn more

10-Day Weather Forecast

Advertisements
Track Severe Weather on mobile